createdAt,value
2023-01-21T00:01:15.180Z,100529.31
2023-01-21T00:03:43.019Z,100525.27
2023-01-21T00:06:11.598Z,100518.35
2023-01-21T00:08:39.389Z,100514.95
2023-01-21T00:11:09.480Z,100515.54
2023-01-21T00:13:37.767Z,100514.76
2023-01-21T00:16:05.994Z,100511.37
2023-01-21T00:18:34.374Z,100512.27
2023-01-21T00:21:02.565Z,100515.22
2023-01-21T00:23:30.246Z,100515.13
2023-01-21T00:26:03.285Z,100506.39
2023-01-21T00:28:33.218Z,100500.57
2023-01-21T00:31:03.111Z,100497.70
2023-01-21T00:33:32.523Z,100496.65
2023-01-21T00:36:22.263Z,100500.23
2023-01-21T00:38:50.023Z,100498.05
2023-01-21T00:41:17.936Z,100492.16
2023-01-21T00:43:45.620Z,100489.91
2023-01-21T00:46:13.404Z,100488.29
2023-01-21T00:48:41.108Z,100490.27
2023-01-21T00:51:09.799Z,100492.44
2023-01-21T00:53:39.257Z,100484.23
2023-01-21T00:56:09.576Z,100481.83
2023-01-21T00:58:37.873Z,100478.41
2023-01-21T01:01:11.921Z,100465.78
2023-01-21T01:03:40.946Z,100461.26
2023-01-21T01:06:12.747Z,100456.48
2023-01-21T01:08:40.636Z,100459.39
2023-01-21T01:11:08.886Z,100467.77
2023-01-21T01:13:37.409Z,100478.37
2023-01-21T01:16:06.541Z,100474.92
2023-01-21T01:18:36.123Z,100463.38
2023-01-21T01:21:05.411Z,100456.38
2023-01-21T01:23:33.389Z,100456.02
2023-01-21T01:26:03.970Z,100450.69
2023-01-21T01:28:32.751Z,100442.13
2023-01-21T01:31:03.687Z,100437.53
2023-01-21T01:33:31.484Z,100434.61
2023-01-21T01:36:04.894Z,100433.81
2023-01-21T01:38:34.799Z,100424.17
2023-01-21T01:41:02.899Z,100423.35
2023-01-21T01:43:58.000Z,100421.52
2023-01-21T01:46:28.774Z,100414.77
2023-01-21T01:49:02.793Z,100407.08
2023-01-21T01:51:41.922Z,100410.81
2023-01-21T01:54:11.162Z,100416.60
2023-01-21T01:56:42.141Z,100408.38
2023-01-21T01:59:10.110Z,100399.86
2023-01-21T02:01:37.982Z,100389.80
2023-01-21T02:04:10.194Z,100384.89
2023-01-21T02:06:39.680Z,100384.17
2023-01-21T02:09:07.529Z,100378.76
2023-01-21T02:11:36.962Z,100368.60
2023-01-21T02:14:05.655Z,100369.16
2023-01-21T02:16:45.656Z,100372.17
2023-01-21T02:19:50.616Z,100369.73
2023-01-21T02:22:45.976Z,100366.48
2023-01-21T02:25:43.280Z,100364.14
2023-01-21T02:28:29.344Z,100358.39
2023-01-21T02:31:06.813Z,100359.15
2023-01-21T02:33:54.127Z,100356.77
2023-01-21T02:36:41.859Z,100356.70
2023-01-21T02:39:47.941Z,100358.74
2023-01-21T02:42:36.966Z,100354.27
2023-01-21T02:45:15.182Z,100349.40
2023-01-21T02:48:05.889Z,100349.60
2023-01-21T02:50:55.165Z,100345.48
2023-01-21T02:53:34.327Z,100345.62
2023-01-21T02:56:12.472Z,100344.78
2023-01-21T02:58:47.511Z,100346.60
2023-01-21T03:01:36.915Z,100342.36
2023-01-21T03:04:24.940Z,100341.86
2023-01-21T03:06:55.505Z,100336.96
2023-01-21T03:09:29.527Z,100327.66
2023-01-21T03:12:01.542Z,100321.58
2023-01-21T03:14:50.240Z,100326.13
2023-01-21T03:17:48.202Z,100329.70
2023-01-21T03:20:47.846Z,100321.41
2023-01-21T03:23:20.193Z,100321.34
2023-01-21T03:25:50.434Z,100315.80
2023-01-21T03:28:23.114Z,100307.70
2023-01-21T03:30:56.845Z,100295.54
2023-01-21T03:33:25.814Z,100285.15
2023-01-21T03:35:55.955Z,100277.42
2023-01-21T03:38:36.372Z,100267.45
2023-01-21T03:41:24.179Z,100259.30
2023-01-21T03:43:52.242Z,100250.16
2023-01-21T03:46:26.177Z,100248.66
2023-01-21T03:49:11.229Z,100243.70
2023-01-21T03:51:50.023Z,100242.52
2023-01-21T03:54:17.956Z,100254.84
2023-01-21T03:56:45.634Z,100253.30
2023-01-21T03:59:13.350Z,100257.16
2023-01-21T04:01:41.772Z,100253.73
2023-01-21T04:04:10.440Z,100248.17
2023-01-21T04:06:38.201Z,100248.09
2023-01-21T04:09:07.228Z,100252.21
2023-01-21T04:11:34.958Z,100251.52
2023-01-21T04:14:02.823Z,100252.39
2023-01-21T04:16:30.715Z,100257.02
2023-01-21T04:18:58.487Z,100268.33
2023-01-21T04:21:26.331Z,100273.28
2023-01-21T04:23:53.982Z,100277.50
2023-01-21T04:26:21.856Z,100279.81
2023-01-21T04:28:49.610Z,100282.13
2023-01-21T04:31:17.358Z,100279.86
2023-01-21T04:33:45.774Z,100277.52
2023-01-21T04:36:13.663Z,100276.63
2023-01-21T04:38:41.516Z,100274.95
2023-01-21T04:41:09.179Z,100271.92
2023-01-21T04:43:36.890Z,100278.52
2023-01-21T04:46:05.071Z,100279.86
2023-01-21T04:48:33.332Z,100277.71
2023-01-21T04:51:01.211Z,100277.91
2023-01-21T04:53:29.283Z,100274.65
2023-01-21T04:55:57.072Z,100268.20
2023-01-21T04:58:24.957Z,100267.40
2023-01-21T05:00:53.858Z,100266.82
2023-01-21T05:03:21.720Z,100269.75
2023-01-21T05:05:49.378Z,100267.87
2023-01-21T05:08:17.268Z,100266.95
2023-01-21T05:10:44.999Z,100267.27
2023-01-21T05:13:12.814Z,100269.70
2023-01-21T05:15:40.539Z,100265.73
2023-01-21T05:18:08.213Z,100264.59
2023-01-21T05:20:35.903Z,100261.11
2023-01-21T05:23:03.638Z,100261.58
2023-01-21T05:25:31.336Z,100264.27
2023-01-21T05:27:59.009Z,100266.67
2023-01-21T05:30:26.812Z,100261.96
2023-01-21T05:32:55.344Z,100259.55
2023-01-21T05:35:24.334Z,100259.51
2023-01-21T05:37:52.076Z,100262.28
2023-01-21T05:40:20.156Z,100266.83
2023-01-21T05:42:47.985Z,100264.83
2023-01-21T05:45:15.800Z,100257.30
2023-01-21T05:47:43.544Z,100257.92
2023-01-21T05:50:12.187Z,100260.95
2023-01-21T05:52:40.412Z,100260.77
2023-01-21T05:55:08.311Z,100267.10
2023-01-21T05:57:36.200Z,100263.56
2023-01-21T06:00:05.181Z,100261.50
2023-01-21T06:02:32.909Z,100266.27
2023-01-21T06:05:00.675Z,100269.95
2023-01-21T06:07:28.464Z,100269.70
2023-01-21T06:09:56.164Z,100271.27
2023-01-21T06:12:24.821Z,100268.18
2023-01-21T06:14:52.766Z,100273.94
2023-01-21T06:17:20.573Z,100275.62
2023-01-21T06:19:48.385Z,100272.98
2023-01-21T06:22:16.720Z,100273.56
2023-01-21T06:24:45.021Z,100274.55
2023-01-21T06:27:13.087Z,100273.33
2023-01-21T06:29:40.724Z,100270.20
2023-01-21T06:32:08.481Z,100272.05
2023-01-21T06:34:36.254Z,100269.83
2023-01-21T06:37:03.928Z,100266.98
2023-01-21T06:39:31.659Z,100271.83
2023-01-21T06:41:59.398Z,100275.89
2023-01-21T06:44:27.098Z,100276.20
2023-01-21T06:47:02.221Z,100277.70
2023-01-21T06:49:29.946Z,100274.59
2023-01-21T06:51:57.675Z,100276.46
2023-01-21T06:54:25.463Z,100279.64
2023-01-21T06:56:53.177Z,100286.08
2023-01-21T06:59:20.866Z,100279.06
2023-01-21T07:01:48.762Z,100273.91
2023-01-21T07:04:16.860Z,100273.54
2023-01-21T07:06:44.567Z,100277.04
2023-01-21T07:09:12.629Z,100284.16
2023-01-21T07:11:40.330Z,100283.85
2023-01-21T07:14:08.077Z,100288.92
2023-01-21T07:16:35.973Z,100285.36
2023-01-21T07:19:04.171Z,100290.07
2023-01-21T07:21:31.949Z,100288.10
2023-01-21T07:24:00.652Z,100285.02
2023-01-21T07:26:28.346Z,100281.54
2023-01-21T07:28:56.181Z,100282.54
2023-01-21T07:31:23.906Z,100280.11
2023-01-21T07:33:51.982Z,100279.52
2023-01-21T07:36:19.788Z,100273.52
2023-01-21T07:38:47.493Z,100276.02
2023-01-21T07:41:15.180Z,100274.27
2023-01-21T07:43:42.902Z,100274.64
2023-01-21T07:46:10.649Z,100268.38
2023-01-21T07:48:38.298Z,100270.27
2023-01-21T07:51:06.255Z,100270.10
2023-01-21T07:53:34.146Z,100269.02
2023-01-21T07:56:06.164Z,100271.40
2023-01-21T07:58:34.083Z,100273.36
2023-01-21T08:01:08.031Z,100273.95
2023-01-21T08:03:37.295Z,100269.76
2023-01-21T08:06:06.149Z,100272.58
2023-01-21T08:08:34.470Z,100271.77
2023-01-21T08:11:02.226Z,100273.45
2023-01-21T08:13:29.939Z,100274.79
2023-01-21T08:15:57.933Z,100280.20
2023-01-21T08:18:25.771Z,100285.52
2023-01-21T08:20:55.671Z,100286.13
2023-01-21T08:23:23.381Z,100281.54
2023-01-21T08:25:51.565Z,100284.90
2023-01-21T08:28:19.296Z,100289.53
2023-01-21T08:30:47.609Z,100291.43
2023-01-21T08:33:15.515Z,100292.91
2023-01-21T08:35:43.227Z,100290.36
2023-01-21T08:38:10.938Z,100297.84
2023-01-21T08:40:38.696Z,100301.80
2023-01-21T08:43:09.070Z,100301.31
2023-01-21T08:45:36.755Z,100298.81
2023-01-21T08:48:04.550Z,100304.89
2023-01-21T08:50:32.216Z,100309.56
2023-01-21T08:52:59.861Z,100310.42
2023-01-21T08:55:27.582Z,100312.77
2023-01-21T08:57:56.022Z,100310.61
2023-01-21T09:00:24.908Z,100310.04
2023-01-21T09:02:53.678Z,100311.48
2023-01-21T09:05:21.668Z,100313.67
2023-01-21T09:07:49.557Z,100314.39
2023-01-21T09:10:38.510Z,100316.11
2023-01-21T09:13:07.842Z,100315.12
2023-01-21T09:15:40.636Z,100316.42
2023-01-21T09:18:08.432Z,100314.52
2023-01-21T09:20:36.387Z,100322.21
2023-01-21T09:23:24.029Z,100322.11
2023-01-21T09:25:53.359Z,100324.85
2023-01-21T09:28:22.322Z,100322.30
2023-01-21T09:30:50.052Z,100328.46
2023-01-21T09:33:17.828Z,100328.05
2023-01-21T09:35:45.596Z,100329.98
2023-01-21T09:38:13.544Z,100330.17
2023-01-21T09:40:45.311Z,100328.02
2023-01-21T09:43:23.999Z,100331.15
2023-01-21T09:45:54.324Z,100331.16
2023-01-21T09:48:49.410Z,100331.72
2023-01-21T09:51:24.499Z,100333.70
2023-01-21T09:53:57.059Z,100331.16
2023-01-21T09:56:56.567Z,100336.86
2023-01-21T09:59:42.948Z,100335.67
2023-01-21T10:02:26.183Z,100336.18
2023-01-21T10:08:37.395Z,100339.95
2023-01-21T10:11:18.810Z,100339.52
2023-01-21T10:13:55.325Z,100340.09
2023-01-21T10:16:32.175Z,100337.45
2023-01-21T10:19:03.177Z,100337.82
2023-01-21T10:21:53.845Z,100341.54
2023-01-21T10:24:26.030Z,100341.75
2023-01-21T10:26:54.181Z,100343.01
2023-01-21T10:29:25.671Z,100343.84
2023-01-21T10:31:59.586Z,100341.83
2023-01-21T10:34:31.330Z,100345.65
2023-01-21T10:37:12.819Z,100349.61
2023-01-21T10:39:55.645Z,100350.98
2023-01-21T10:42:44.122Z,100355.19
2023-01-21T10:45:25.775Z,100357.80
2023-01-21T10:48:30.898Z,100360.56
2023-01-21T10:51:21.796Z,100367.43
2023-01-21T10:54:09.652Z,100369.23
2023-01-21T10:56:55.335Z,100372.40
2023-01-21T10:59:27.016Z,100373.50
2023-01-21T11:02:12.867Z,100375.34
2023-01-21T11:04:41.149Z,100380.23
2023-01-21T11:07:14.845Z,100378.00
2023-01-21T11:09:46.110Z,100380.83
2023-01-21T11:12:18.713Z,100381.50
2023-01-21T11:15:00.962Z,100387.09
2023-01-21T11:17:34.520Z,100384.85
2023-01-21T11:20:26.095Z,100389.98
2023-01-21T11:22:53.888Z,100390.47
2023-01-21T11:25:41.560Z,100396.05
2023-01-21T11:28:24.524Z,100394.38
2023-01-21T11:31:14.785Z,100394.86
2023-01-21T11:33:43.934Z,100395.48
2023-01-21T11:36:17.417Z,100395.00
2023-01-21T11:38:48.194Z,100400.66
2023-01-21T11:41:21.296Z,100402.25
2023-01-21T11:43:52.768Z,100402.57
2023-01-21T11:46:28.904Z,100406.88
2023-01-21T11:49:09.890Z,100414.05
2023-01-21T11:51:39.722Z,100415.46
2023-01-21T11:54:24.688Z,100421.64
2023-01-21T11:56:58.216Z,100424.40
2023-01-21T11:59:25.849Z,100430.55
2023-01-21T12:01:59.850Z,100434.62
2023-01-21T12:04:27.606Z,100436.39
2023-01-21T12:07:00.337Z,100440.04
2023-01-21T12:09:29.193Z,100441.27
2023-01-21T12:12:27.554Z,100445.80
2023-01-21T12:15:03.902Z,100442.30
2023-01-21T12:17:41.586Z,100447.19
2023-01-21T12:20:23.624Z,100452.15
2023-01-21T12:23:09.905Z,100453.23
2023-01-21T12:25:51.362Z,100458.34
2023-01-21T12:28:46.813Z,100458.05
2023-01-21T12:31:23.931Z,100464.14
2023-01-21T12:33:55.182Z,100464.19
2023-01-21T12:36:33.105Z,100467.30
2023-01-21T12:39:14.188Z,100470.52
2023-01-21T12:41:44.180Z,100475.36
2023-01-21T12:44:27.708Z,100477.89
2023-01-21T12:47:01.303Z,100483.45
2023-01-21T12:50:15.030Z,100482.56
2023-01-21T12:53:14.762Z,100489.10
2023-01-21T12:56:00.663Z,100492.27
2023-01-21T12:59:05.512Z,100497.20
2023-01-21T13:01:55.840Z,100501.25
2023-01-21T13:04:39.471Z,100507.61
2023-01-21T13:07:20.620Z,100514.41
2023-01-21T13:10:17.692Z,100518.86
2023-01-21T13:12:51.913Z,100526.73
2023-01-21T13:15:23.744Z,100530.92
2023-01-21T13:17:57.270Z,100533.15
2023-01-21T13:20:25.215Z,100536.86
2023-01-21T13:22:58.826Z,100541.24
2023-01-21T13:25:34.958Z,100544.52
2023-01-21T13:28:06.334Z,100548.64
2023-01-21T13:30:55.679Z,100547.14
2023-01-21T13:33:29.213Z,100549.06
2023-01-21T13:36:21.904Z,100553.61
2023-01-21T13:39:10.025Z,100553.97
2023-01-21T13:41:49.721Z,100557.41
2023-01-21T13:44:33.596Z,100561.66
2023-01-21T13:47:35.125Z,100565.10
2023-01-21T13:50:17.382Z,100573.79
2023-01-21T13:53:23.772Z,100574.33
2023-01-21T13:56:12.484Z,100581.59
2023-01-21T13:59:14.201Z,100585.80
2023-01-21T14:01:55.745Z,100593.95
2023-01-21T14:08:10.898Z,100603.95
2023-01-21T14:10:53.979Z,100609.02
2023-01-21T14:13:30.852Z,100608.16
2023-01-21T14:16:13.853Z,100611.73
2023-01-21T14:19:02.731Z,100621.94
2023-01-21T14:21:55.223Z,100626.27
2023-01-21T14:25:01.063Z,100629.94
2023-01-21T14:28:00.203Z,100633.48
2023-01-21T14:30:45.920Z,100637.30
2023-01-21T14:33:29.391Z,100635.02
2023-01-21T14:36:20.258Z,100642.69
2023-01-21T14:39:19.683Z,100645.64
2023-01-21T14:42:12.605Z,100652.97
2023-01-21T14:45:01.247Z,100662.42
2023-01-21T14:47:28.948Z,100669.35
2023-01-21T14:49:59.128Z,100674.02
2023-01-21T14:52:43.213Z,100678.16
2023-01-21T14:55:30.539Z,100683.90
2023-01-21T14:58:01.607Z,100691.70
2023-01-21T15:00:32.414Z,100694.27
2023-01-21T15:03:03.145Z,100702.63
2023-01-21T15:05:38.173Z,100706.85
2023-01-21T15:08:17.187Z,100713.64
2023-01-21T15:10:52.503Z,100716.16
2023-01-21T15:13:35.584Z,100724.91
2023-01-21T15:16:12.892Z,100729.25
2023-01-21T15:19:05.820Z,100730.89
2023-01-21T15:21:41.030Z,100734.86
2023-01-21T15:24:26.004Z,100736.30
2023-01-21T15:27:12.629Z,100738.15
2023-01-21T15:29:53.762Z,100742.60
2023-01-21T15:32:38.535Z,100746.52
2023-01-21T15:35:30.549Z,100746.00
2023-01-21T15:38:12.607Z,100751.77
2023-01-21T15:40:48.834Z,100752.89
2023-01-21T15:43:21.554Z,100758.05
2023-01-21T15:46:14.560Z,100760.67
2023-01-21T15:49:11.601Z,100770.39
2023-01-21T15:51:54.548Z,100771.57
2023-01-21T15:54:28.013Z,100775.50
2023-01-21T15:57:23.369Z,100777.10
2023-01-21T16:00:09.618Z,100782.92
2023-01-21T16:02:51.954Z,100790.42
2023-01-21T16:06:01.346Z,100793.64
2023-01-21T16:08:37.991Z,100800.63
2023-01-21T16:11:19.189Z,100802.95
2023-01-21T16:14:03.144Z,100809.61
2023-01-21T16:16:49.662Z,100815.70
2023-01-21T16:19:21.564Z,100819.33
2023-01-21T16:21:53.630Z,100821.14
2023-01-21T16:24:25.180Z,100825.73
2023-01-21T16:26:52.891Z,100829.79
2023-01-21T16:29:20.729Z,100834.71
2023-01-21T16:32:00.001Z,100837.94
2023-01-21T16:34:30.602Z,100842.46
2023-01-21T16:36:58.430Z,100847.09
2023-01-21T16:39:26.262Z,100852.46
2023-01-21T16:42:02.380Z,100859.45
2023-01-21T16:44:32.965Z,100857.37
2023-01-21T16:47:01.508Z,100860.73
2023-01-21T16:49:29.803Z,100864.36
2023-01-21T16:52:00.691Z,100870.80
2023-01-21T16:54:31.711Z,100878.14
2023-01-21T16:57:20.299Z,100884.23
2023-01-21T16:59:48.860Z,100887.74
2023-01-21T17:02:28.149Z,100890.93
2023-01-21T17:04:57.880Z,100896.42
2023-01-21T17:07:25.681Z,100903.63
2023-01-21T17:09:58.855Z,100904.35
2023-01-21T17:12:29.525Z,100905.41
2023-01-21T17:15:01.678Z,100910.85
2023-01-21T17:17:37.260Z,100911.58
2023-01-21T17:20:05.637Z,100912.06
2023-01-21T17:22:35.384Z,100914.61
2023-01-21T17:25:07.517Z,100916.44
2023-01-21T17:27:39.517Z,100918.51
2023-01-21T17:30:33.189Z,100923.84
2023-01-21T17:33:02.589Z,100929.20
2023-01-21T17:35:32.900Z,100934.27
2023-01-21T17:38:10.794Z,100939.50
2023-01-21T17:40:45.721Z,100949.17
2023-01-21T17:43:17.003Z,100950.17
2023-01-21T17:45:47.229Z,100954.81
2023-01-21T17:48:23.708Z,100960.29
2023-01-21T17:50:52.621Z,100964.42
2023-01-21T17:53:26.347Z,100971.86
2023-01-21T17:56:07.264Z,100972.52
2023-01-21T17:58:45.019Z,100975.55
2023-01-21T18:01:13.876Z,100981.48
2023-01-21T18:03:42.308Z,100986.58
2023-01-21T18:06:17.439Z,100986.77
2023-01-21T18:08:45.343Z,100994.02
2023-01-21T18:11:17.693Z,100995.03
2023-01-21T18:13:45.457Z,101001.98
2023-01-21T18:16:13.842Z,101003.67
2023-01-21T18:18:42.108Z,101012.17
2023-01-21T18:21:19.974Z,101017.70
2023-01-21T18:23:48.977Z,101021.85
2023-01-21T18:26:26.555Z,101027.21
2023-01-21T18:28:54.301Z,101025.41
2023-01-21T18:31:23.208Z,101031.38
2023-01-21T18:33:51.255Z,101032.42
2023-01-21T18:36:18.967Z,101033.54
2023-01-21T18:38:46.634Z,101037.86
2023-01-21T18:41:14.414Z,101038.08
2023-01-21T18:43:43.098Z,101040.15
2023-01-21T18:46:13.586Z,101044.39
2023-01-21T18:48:42.990Z,101044.59
2023-01-21T18:51:12.662Z,101046.44
2023-01-21T18:53:40.426Z,101050.19
2023-01-21T18:56:13.720Z,101055.13
2023-01-21T18:58:41.601Z,101055.79
2023-01-21T19:01:21.893Z,101061.13
2023-01-21T19:03:52.843Z,101061.81
2023-01-21T19:06:22.252Z,101066.97
2023-01-21T19:08:49.934Z,101069.13
2023-01-21T19:11:18.070Z,101071.96
2023-01-21T19:13:45.923Z,101075.95
2023-01-21T19:16:18.816Z,101078.15
2023-01-21T19:18:46.580Z,101080.50
2023-01-21T19:21:14.406Z,101082.11
2023-01-21T19:23:42.239Z,101083.59
2023-01-21T19:26:13.039Z,101087.34
2023-01-21T19:28:40.766Z,101092.05
2023-01-21T19:31:08.604Z,101096.48
2023-01-21T19:33:36.780Z,101097.85
2023-01-21T19:36:12.246Z,101100.50
2023-01-21T19:38:41.494Z,101107.38
2023-01-21T19:41:10.890Z,101110.66
2023-01-21T19:43:38.628Z,101113.77
2023-01-21T19:46:11.280Z,101113.56
2023-01-21T19:48:40.040Z,101123.55
2023-01-21T19:51:08.283Z,101129.36
2023-01-21T19:53:36.244Z,101136.74
2023-01-21T19:56:05.718Z,101137.08
2023-01-21T19:58:33.757Z,101144.79
2023-01-21T20:01:01.671Z,101148.97
2023-01-21T20:03:30.563Z,101149.66
2023-01-21T20:06:01.620Z,101151.73
2023-01-21T20:08:31.534Z,101147.91
2023-01-21T20:11:00.193Z,101153.32
2023-01-21T20:13:32.261Z,101156.69
2023-01-21T20:16:03.757Z,101161.89
2023-01-21T20:18:35.032Z,101161.63
2023-01-21T20:21:02.806Z,101171.63
2023-01-21T20:23:32.577Z,101176.95
2023-01-21T20:26:00.245Z,101179.54
2023-01-21T20:28:34.062Z,101183.69
2023-01-21T20:31:06.521Z,101187.75
2023-01-21T20:33:35.933Z,101191.84
2023-01-21T20:36:07.564Z,101194.77
2023-01-21T20:38:37.415Z,101195.04
2023-01-21T20:41:05.918Z,101198.05
2023-01-21T20:43:35.194Z,101200.27
2023-01-21T20:46:07.198Z,101202.64
2023-01-21T20:48:38.928Z,101206.67
2023-01-21T20:51:07.329Z,101209.84
2023-01-21T20:53:35.941Z,101216.11
2023-01-21T20:56:17.375Z,101214.59
2023-01-21T20:58:47.704Z,101215.43
2023-01-21T21:01:16.924Z,101218.95
2023-01-21T21:03:45.162Z,101215.31
2023-01-21T21:06:18.998Z,101219.65
2023-01-21T21:08:47.846Z,101227.73
2023-01-21T21:11:16.913Z,101232.35
2023-01-21T21:13:48.235Z,101233.35
2023-01-21T21:16:19.698Z,101236.47
2023-01-21T21:18:48.285Z,101242.98
2023-01-21T21:21:17.589Z,101247.75
2023-01-21T21:23:48.429Z,101253.44
2023-01-21T21:26:20.397Z,101252.92
2023-01-21T21:28:49.023Z,101258.69
2023-01-21T21:31:18.185Z,101261.58
2023-01-21T21:33:46.255Z,101264.13
2023-01-21T21:36:19.702Z,101271.80
2023-01-21T21:38:48.856Z,101273.77
2023-01-21T21:41:37.890Z,101276.29
2023-01-21T21:44:06.917Z,101278.04
2023-01-21T21:46:55.048Z,101281.34
2023-01-21T21:49:23.327Z,101286.36
2023-01-21T21:51:51.083Z,101290.88
2023-01-21T21:54:18.831Z,101289.59
2023-01-21T21:56:47.611Z,101294.59
2023-01-21T21:59:15.409Z,101297.95
2023-01-21T22:01:44.233Z,101299.35
2023-01-21T22:04:12.257Z,101301.74
2023-01-21T22:06:40.224Z,101305.48
2023-01-21T22:09:08.474Z,101302.13
2023-01-21T22:11:36.302Z,101309.27
2023-01-21T22:14:04.505Z,101313.36
2023-01-21T22:16:33.482Z,101320.10
2023-01-21T22:19:01.878Z,101327.41
2023-01-21T22:21:32.716Z,101324.52
2023-01-21T22:24:02.028Z,101324.64
2023-01-21T22:26:30.356Z,101327.75
2023-01-21T22:28:58.612Z,101335.04
2023-01-21T22:31:29.305Z,101339.00
2023-01-21T22:33:59.184Z,101337.93
2023-01-21T22:36:29.758Z,101340.73
2023-01-21T22:38:58.111Z,101342.92
2023-01-21T22:41:26.704Z,101341.80
2023-01-21T22:43:54.618Z,101343.59
2023-01-21T22:46:24.840Z,101344.39
2023-01-21T22:48:55.970Z,101351.34
2023-01-21T22:51:23.815Z,101357.15
2023-01-21T22:53:52.670Z,101356.45
2023-01-21T22:56:31.511Z,101355.33
2023-01-21T22:59:08.009Z,101361.04
2023-01-21T23:01:36.546Z,101362.46
2023-01-21T23:04:04.569Z,101362.94
2023-01-21T23:06:32.261Z,101365.21
2023-01-21T23:09:00.666Z,101365.54
2023-01-21T23:11:29.696Z,101364.52
2023-01-21T23:13:57.457Z,101361.13
2023-01-21T23:16:25.194Z,101357.84
2023-01-21T23:18:53.016Z,101361.30
2023-01-21T23:21:22.135Z,101363.05
2023-01-21T23:23:50.330Z,101364.14
2023-01-21T23:26:19.448Z,101366.20
2023-01-21T23:28:47.518Z,101367.80
2023-01-21T23:31:17.674Z,101368.20
2023-01-21T23:33:53.115Z,101373.70
2023-01-21T23:36:21.356Z,101373.36
2023-01-21T23:38:49.112Z,101374.92
2023-01-21T23:41:17.209Z,101374.93
2023-01-21T23:43:44.899Z,101377.67
2023-01-21T23:46:19.898Z,101378.39
2023-01-21T23:48:48.006Z,101376.00
2023-01-21T23:51:17.097Z,101380.73
2023-01-21T23:53:48.187Z,101376.30
2023-01-21T23:56:23.693Z,101380.70
2023-01-21T23:58:51.727Z,101379.73
